Time;durP1;ratioP1;P1;durP2;ratioP2;P2;SDS_P1;SDS_P2;PMS_P1;PMS_P2;Temp;Humidity;BMP_temperature;BMP_pressure;BME280_temperature;BME280_humidity;BME280_pressure;Samples;Min_cycle;Max_cycle;Signal;HPM_P1;HPM_P2
2023/06/25 00:02:12;;;;;;;5.90;4.50;;;22.50;75.50;;;;;;5050513;28;20288;-79
2023/06/25 00:04:38;;;;;;;7.17;5.00;;;22.50;77.90;;;;;;5054821;28;20252;-78
2023/06/25 00:07:04;;;;;;;5.77;5.10;;;22.50;80.30;;;;;;5054079;28;20208;-77
2023/06/25 00:09:29;;;;;;;5.57;4.97;;;22.50;83.40;;;;;;5054920;28;20614;-78
2023/06/25 00:11:55;;;;;;;5.90;4.50;;;22.40;83.60;;;;;;5054857;28;20184;-78
2023/06/25 00:14:20;;;;;;;5.87;4.80;;;22.30;83.80;;;;;;5053396;28;20189;-78
2023/06/25 00:16:46;;;;;;;6.53;4.70;;;22.40;86.90;;;;;;5036182;28;20213;-78
2023/06/25 00:19:11;;;;;;;5.90;4.70;;;22.30;89.80;;;;;;5050634;28;20210;-78
2023/06/25 00:21:37;;;;;;;5.70;4.73;;;22.30;90.30;;;;;;5054243;28;20184;-78
2023/06/25 00:24:03;;;;;;;6.07;5.00;;;22.30;91.10;;;;;;5054059;28;20185;-78
2023/06/25 00:26:30;;;;;;;7.13;5.23;;;22.20;91.90;;;;;;5053162;28;20657;-78
2023/06/25 00:28:55;;;;;;;6.60;4.40;;;22.20;92.10;;;;;;5053890;28;20527;-78
2023/06/25 00:31:21;;;;;;;5.20;4.30;;;22.10;92.80;;;;;;5053618;28;20515;-78
2023/06/25 00:33:49;;;;;;;9.10;4.63;;;22.10;94.30;;;;;;5053572;28;20685;-78
2023/06/25 00:36:15;;;;;;;6.37;4.80;;;22.10;96.30;;;;;;5050451;28;20246;-78
2023/06/25 00:38:42;;;;;;;7.07;4.30;;;22.10;98.60;;;;;;5053443;28;20483;-78
2023/06/25 00:41:09;;;;;;;6.83;4.37;;;22.10;99.90;;;;;;5053016;28;20441;-78
2023/06/25 00:43:37;;;;;;;5.60;4.10;;;22.10;99.90;;;;;;5054585;28;20468;-78
2023/06/25 00:46:02;;;;;;;7.90;4.70;;;22.10;99.90;;;;;;5054540;28;20453;-78
2023/06/25 00:48:28;;;;;;;5.47;4.37;;;22.10;99.90;;;;;;5055276;28;20474;-78
2023/06/25 00:51:01;;;;;;;5.50;4.57;;;22.10;99.90;;;;;;5049793;28;20340;-78
2023/06/25 00:53:31;;;;;;;8.03;5.10;;;22.00;99.90;;;;;;5051138;28;20292;-78
2023/06/25 00:55:56;;;;;;;8.23;5.10;;;22.00;99.90;;;;;;5036541;28;20469;-78
2023/06/25 00:58:22;;;;;;;6.47;4.23;;;21.90;99.90;;;;;;5052366;28;20480;-78
2023/06/25 01:00:48;;;;;;;17.40;5.03;;;21.90;99.90;;;;;;5053605;28;20707;-77
2023/06/25 01:03:30;;;;;;;12.60;4.37;;;21.90;99.90;;;;;;5035770;28;20465;-78
2023/06/25 01:05:58;;;;;;;6.33;4.60;;;21.80;99.90;;;;;;5054648;28;20480;-78
2023/06/25 01:08:28;;;;;;;11.53;5.37;;;21.80;99.90;;;;;;5053748;28;20465;-78
2023/06/25 01:10:55;;;;;;;10.17;4.43;;;21.80;99.90;;;;;;5051120;28;20434;-78
2023/06/25 01:13:20;;;;;;;6.50;4.30;;;21.80;99.90;;;;;;5056133;28;20439;-78
2023/06/25 01:15:46;;;;;;;7.00;4.17;;;21.70;99.90;;;;;;5055243;28;20438;-78
2023/06/25 01:18:13;;;;;;;6.50;4.50;;;21.70;99.90;;;;;;5052194;28;20600;-78
2023/06/25 01:20:40;;;;;;;6.73;3.93;;;21.60;99.90;;;;;;5055404;28;20602;-78
2023/06/25 01:23:06;;;;;;;5.10;4.07;;;21.50;99.90;;;;;;5054977;28;20426;-78
2023/06/25 01:25:36;;;;;;;6.50;4.20;;;21.50;99.90;;;;;;5050497;28;20432;-77
2023/06/25 01:28:02;;;;;;;6.73;4.47;;;21.40;99.90;;;;;;5053436;28;20458;-79
2023/06/25 01:30:31;;;;;;;7.63;4.10;;;21.30;99.90;;;;;;5052194;28;20449;-78
2023/06/25 01:32:59;;;;;;;6.00;4.20;;;21.30;99.90;;;;;;5054370;28;20438;-78
2023/06/25 01:35:25;;;;;;;7.33;3.83;;;21.20;99.90;;;;;;5054176;28;20433;-78
2023/06/25 01:37:51;;;;;;;6.63;4.17;;;21.20;99.90;;;;;;5054774;28;20482;-78
2023/06/25 01:40:16;;;;;;;8.23;4.87;;;21.10;99.90;;;;;;5054642;28;20296;-78
2023/06/25 01:42:43;;;;;;;5.70;4.03;;;21.10;99.90;;;;;;5050437;28;20517;-78
2023/06/25 01:45:09;;;;;;;5.87;4.17;;;21.10;99.90;;;;;;5047825;28;20944;-78
2023/06/25 01:47:36;;;;;;;8.63;4.23;;;21.10;99.90;;;;;;5052013;28;20478;-78
2023/06/25 01:50:02;;;;;;;5.93;4.20;;;21.00;99.90;;;;;;5052535;28;20935;-76
2023/06/25 01:52:28;;;;;;;9.40;4.67;;;21.00;99.90;;;;;;5053845;28;20432;-78
2023/06/25 01:54:54;;;;;;;9.97;4.60;;;20.90;99.90;;;;;;5055080;28;20432;-78
2023/06/25 01:57:20;;;;;;;8.83;4.67;;;20.90;99.90;;;;;;5054295;28;20481;-77
2023/06/25 01:59:45;;;;;;;8.53;4.40;;;20.90;99.90;;;;;;5046704;28;20194;-78
2023/06/25 02:02:11;;;;;;;8.20;5.00;;;20.90;99.90;;;;;;5049875;28;20590;-78
2023/06/25 02:04:36;;;;;;;10.43;4.40;;;20.90;99.90;;;;;;5050256;28;20246;-78
2023/06/25 02:07:02;;;;;;;9.87;4.60;;;20.90;99.90;;;;;;5032736;28;20273;-77
2023/06/25 02:09:28;;;;;;;9.17;4.27;;;20.90;99.90;;;;;;5051031;28;20276;-78
2023/06/25 02:11:53;;;;;;;9.97;4.90;;;20.90;99.90;;;;;;5051964;28;20185;-78
2023/06/25 02:14:19;;;;;;;5.67;4.20;;;20.90;99.90;;;;;;5050683;28;20710;-78
2023/06/25 02:16:45;;;;;;;8.50;4.77;;;20.90;99.90;;;;;;5048459;28;20216;-78
2023/06/25 02:19:10;;;;;;;8.70;4.43;;;20.80;99.90;;;;;;5053202;28;20187;-78
2023/06/25 02:21:36;;;;;;;7.23;4.53;;;20.80;99.90;;;;;;5054680;28;20200;-78
2023/06/25 02:24:01;;;;;;;5.20;4.10;;;20.80;99.90;;;;;;5052382;28;20192;-80
2023/06/25 02:26:29;;;;;;;7.70;4.90;;;20.80;99.90;;;;;;5052331;28;20202;-78
2023/06/25 02:28:54;;;;;;;9.93;4.97;;;20.80;99.90;;;;;;5053429;28;20204;-78
2023/06/25 02:31:20;;;;;;;8.40;4.60;;;20.80;99.90;;;;;;5052446;28;20446;-78
2023/06/25 02:33:45;;;;;;;7.03;3.97;;;20.70;99.90;;;;;;5049164;28;20571;-78
2023/06/25 02:36:11;;;;;;;6.93;4.77;;;20.70;99.90;;;;;;5051235;28;20193;-78
2023/06/25 02:38:36;;;;;;;7.03;4.70;;;20.70;99.90;;;;;;5053010;28;20694;-78
2023/06/25 02:41:02;;;;;;;7.10;4.67;;;20.70;99.90;;;;;;5052709;28;20670;-78
2023/06/25 02:43:27;;;;;;;10.90;4.43;;;20.70;99.90;;;;;;5053333;28;20182;-78
2023/06/25 02:45:53;;;;;;;7.73;4.40;;;20.60;99.90;;;;;;5052103;28;20235;-78
2023/06/25 02:48:19;;;;;;;7.13;4.57;;;20.50;99.90;;;;;;5049713;28;20217;-78
2023/06/25 02:50:44;;;;;;;10.17;4.47;;;20.40;99.90;;;;;;5052362;28;20193;-78
2023/06/25 02:53:11;;;;;;;11.83;4.87;;;20.40;99.90;;;;;;5051440;28;20184;-78
2023/06/25 02:55:37;;;;;;;8.83;4.50;;;20.40;99.90;;;;;;5055392;28;20684;-78
2023/06/25 02:58:02;;;;;;;8.17;3.90;;;20.40;99.90;;;;;;5057463;28;20469;-78
2023/06/25 03:00:28;;;;;;;13.23;4.60;;;20.40;99.90;;;;;;5038401;28;20192;-78
2023/06/25 03:02:53;;;;;;;7.27;4.73;;;20.30;99.90;;;;;;5057235;28;20531;-78
2023/06/25 03:05:19;;;;;;;9.40;4.70;;;20.30;99.90;;;;;;5052571;28;20184;-78
2023/06/25 03:07:52;;;;;;;13.57;4.53;;;20.20;99.90;;;;;;5057261;28;20228;-78
2023/06/25 03:10:18;;;;;;;6.87;4.30;;;20.10;99.90;;;;;;5056444;28;20190;-78
2023/06/25 03:12:44;;;;;;;13.53;4.40;;;20.10;99.90;;;;;;5056735;28;20496;-78
2023/06/25 03:15:09;;;;;;;10.37;4.97;;;20.10;99.90;;;;;;5056597;28;20474;-78
2023/06/25 03:17:35;;;;;;;10.10;4.07;;;20.10;99.90;;;;;;5056871;28;20744;-78
2023/06/25 03:20:00;;;;;;;7.67;4.07;;;20.00;99.90;;;;;;5055548;28;20214;-78
2023/06/25 03:22:26;;;;;;;5.13;3.83;;;19.90;99.90;;;;;;5052401;28;20192;-78
2023/06/25 03:24:51;;;;;;;12.60;4.10;;;19.90;99.90;;;;;;5056054;28;20874;-78
2023/06/25 03:27:17;;;;;;;9.53;4.87;;;19.90;99.90;;;;;;5056475;28;20221;-78
2023/06/25 03:29:42;;;;;;;9.23;4.50;;;20.00;99.90;;;;;;5056053;28;20192;-78
2023/06/25 03:32:08;;;;;;;6.67;4.23;;;19.90;99.90;;;;;;5055711;28;20193;-78
2023/06/25 03:34:34;;;;;;;10.13;4.40;;;19.90;99.90;;;;;;5055008;28;20193;-78
2023/06/25 03:36:59;;;;;;;14.63;4.30;;;19.90;99.90;;;;;;5054976;28;20222;-78
2023/06/25 03:39:25;;;;;;;10.10;4.20;;;19.90;99.90;;;;;;5051247;28;20183;-78
2023/06/25 03:41:50;;;;;;;13.40;4.40;;;20.00;99.90;;;;;;5055219;28;20183;-78
2023/06/25 03:44:16;;;;;;;8.73;4.77;;;19.90;99.90;;;;;;5054335;28;20184;-77
2023/06/25 03:46:41;;;;;;;9.77;4.90;;;19.90;99.90;;;;;;5054135;28;20202;-78
2023/06/25 03:49:07;;;;;;;10.90;4.33;;;19.80;99.90;;;;;;5055155;28;20193;-78
2023/06/25 03:51:32;;;;;;;9.03;4.50;;;19.70;99.90;;;;;;5055028;28;20239;-78
2023/06/25 03:53:58;;;;;;;9.27;4.67;;;19.60;99.90;;;;;;5055005;28;20796;-78
2023/06/25 03:56:23;;;;;;;9.00;4.93;;;19.50;1.00;;;;;;5051702;28;20188;-77
2023/06/25 03:58:49;;;;;;;10.90;5.03;;;19.50;1.00;;;;;;5055218;28;20228;-77
2023/06/25 04:01:14;;;;;;;13.27;4.27;;;19.40;1.00;;;;;;5055001;28;20197;-78
2023/06/25 04:03:40;;;;;;;10.63;5.93;;;19.30;1.00;;;;;;5054555;28;20672;-78
2023/06/25 04:06:05;;;;;;;8.93;5.70;;;19.20;1.00;;;;;;5053848;28;20185;-78
2023/06/25 04:08:31;;;;;;;13.23;4.80;;;19.30;33.70;;;;;;5035712;28;20249;-78
2023/06/25 04:10:56;;;;;;;8.87;5.20;;;19.30;1.00;;;;;;5054337;28;20195;-78
2023/06/25 04:13:22;;;;;;;11.67;5.33;;;19.40;1.00;;;;;;5049654;28;20709;-78
2023/06/25 04:15:47;;;;;;;7.30;5.00;;;19.40;1.00;;;;;;5055238;28;20195;-77
2023/06/25 04:18:13;;;;;;;12.17;5.43;;;19.50;1.00;;;;;;5056131;28;20260;-78
2023/06/25 04:20:39;;;;;;;8.93;5.13;;;19.50;1.00;;;;;;5054265;28;20195;-78
2023/06/25 04:23:04;;;;;;;16.27;5.33;;;19.60;1.00;;;;;;5054549;28;20178;-78
2023/06/25 04:25:31;;;;;;;8.80;5.40;;;19.70;1.00;;;;;;5055220;28;20181;-78
2023/06/25 04:27:56;;;;;;;13.17;6.13;;;19.80;1.00;;;;;;5054320;28;20222;-78
2023/06/25 04:30:22;;;;;;;9.80;4.90;;;19.80;1.00;;;;;;5054968;28;20455;-78
2023/06/25 04:32:49;;;;;;;10.60;5.60;;;19.80;1.00;;;;;;5050979;28;20237;-77
2023/06/25 04:35:18;;;;;;;14.57;4.57;;;19.80;1.00;;;;;;5055155;28;20430;-78
2023/06/25 04:37:43;;;;;;;12.73;4.63;;;19.80;1.00;;;;;;5054243;28;21169;-78
2023/06/25 04:40:10;;;;;;;14.27;5.40;;;19.90;1.00;;;;;;5055012;28;20502;-78
2023/06/25 04:42:36;;;;;;;9.53;4.83;;;19.90;1.00;;;;;;5054367;28;20181;-78
2023/06/25 04:45:01;;;;;;;21.50;5.10;;;20.00;1.00;;;;;;5054461;28;20473;-78
2023/06/25 04:47:27;;;;;;;14.20;5.67;;;20.10;1.00;;;;;;5056080;28;20220;-78
2023/06/25 04:49:53;;;;;;;15.93;5.17;;;20.30;1.00;;;;;;5050778;28;20606;-78
2023/06/25 04:52:19;;;;;;;13.20;5.50;;;20.30;1.00;;;;;;5053430;28;20442;-78
2023/06/25 04:54:47;;;;;;;8.70;4.33;;;20.40;1.00;;;;;;5054292;28;20185;-78
2023/06/25 04:57:13;;;;;;;18.83;5.00;;;20.40;1.00;;;;;;5054626;28;20479;-78
2023/06/25 04:59:39;;;;;;;16.00;5.33;;;20.50;1.00;;;;;;5054365;28;20435;-78
2023/06/25 05:02:05;;;;;;;8.50;4.40;;;20.50;1.00;;;;;;5054046;28;20667;-78
2023/06/25 05:04:31;;;;;;;15.33;4.60;;;20.60;1.00;;;;;;5054682;28;20553;-78
2023/06/25 05:06:56;;;;;;;11.10;4.73;;;20.60;1.00;;;;;;5050546;28;20475;-78
2023/06/25 05:09:21;;;;;;;9.07;4.57;;;20.70;1.00;;;;;;5054669;28;20193;-78
2023/06/25 05:11:47;;;;;;;11.10;4.77;;;20.80;1.00;;;;;;5055005;28;20189;-79
2023/06/25 05:14:13;;;;;;;11.07;4.83;;;20.90;1.00;;;;;;5054838;28;20686;-79
2023/06/25 05:16:38;;;;;;;10.13;4.27;;;21.10;1.00;;;;;;5054665;28;20212;-78
2023/06/25 05:19:04;;;;;;;12.00;4.87;;;21.20;99.90;;;;;;5052265;28;20186;-79
2023/06/25 05:21:29;;;;;;;8.23;4.63;;;21.30;99.90;;;;;;5049559;28;20243;-76
2023/06/25 05:24:03;;;;;;;11.40;5.23;;;21.40;99.90;;;;;;5051290;28;20179;-79
2023/06/25 05:26:28;;;;;;;12.30;5.67;;;21.40;99.90;;;;;;5050920;28;20218;-79
2023/06/25 05:28:54;;;;;;;8.10;4.63;;;21.40;99.90;;;;;;5045056;28;20492;-77
2023/06/25 05:31:20;;;;;;;8.27;3.60;;;21.50;99.90;;;;;;5041901;28;20191;-77
2023/06/25 05:33:45;;;;;;;7.93;4.83;;;21.60;99.90;;;;;;5041963;28;20183;-78
2023/06/25 05:36:13;;;;;;;14.03;5.80;;;21.70;99.90;;;;;;5023567;28;20194;-80
2023/06/25 05:38:38;;;;;;;9.10;4.30;;;21.80;99.90;;;;;;5027639;28;20198;-78
2023/06/25 05:41:04;;;;;;;11.50;4.50;;;21.80;99.90;;;;;;5044115;28;20965;-77
2023/06/25 05:43:29;;;;;;;21.53;5.50;;;22.00;99.90;;;;;;5045813;28;20222;-78
2023/06/25 05:45:55;;;;;;;9.13;4.53;;;22.10;99.90;;;;;;5041289;28;20187;-77
2023/06/25 05:48:20;;;;;;;11.73;4.53;;;22.20;99.90;;;;;;5048845;28;20321;-76
2023/06/25 05:50:46;;;;;;;11.40;4.87;;;22.30;99.90;;;;;;5046470;28;20260;-78
2023/06/25 05:53:11;;;;;;;10.67;4.33;;;22.50;99.90;;;;;;5039474;28;20203;-78
2023/06/25 05:55:37;;;;;;;7.37;4.53;;;22.60;99.90;;;;;;5047802;28;20202;-79
2023/06/25 05:58:03;;;;;;;9.20;4.77;;;22.70;99.90;;;;;;5046696;28;20211;-78
2023/06/25 06:00:28;;;;;;;8.67;4.80;;;22.80;99.90;;;;;;5045416;28;20208;-78
2023/06/25 06:02:54;;;;;;;5.27;4.30;;;23.00;99.90;;;;;;5042517;28;20216;-76
2023/06/25 06:05:19;;;;;;;7.03;4.00;;;23.20;99.90;;;;;;5040834;28;20188;-78
2023/06/25 06:07:45;;;;;;;7.83;3.83;;;23.40;99.90;;;;;;5044140;28;20279;-77
2023/06/25 06:10:14;;;;;;;9.57;5.17;;;23.60;99.90;;;;;;5047489;28;20194;-77
2023/06/25 06:12:40;;;;;;;14.80;5.23;;;23.90;99.90;;;;;;5039063;28;20274;-77
2023/06/25 06:15:05;;;;;;;9.93;4.57;;;24.30;99.90;;;;;;5041640;28;20531;-77
2023/06/25 06:17:31;;;;;;;9.57;4.27;;;25.20;99.90;;;;;;5047526;28;20258;-78
2023/06/25 06:19:57;;;;;;;8.33;3.53;;;27.30;99.90;;;;;;5042156;28;20963;-79
2023/06/25 06:22:22;;;;;;;6.53;4.30;;;30.60;99.90;;;;;;5041366;28;20193;-78
2023/06/25 06:24:48;;;;;;;8.20;4.07;;;33.70;99.90;;;;;;5044606;28;20237;-79
2023/06/25 06:27:13;;;;;;;7.10;3.70;;;36.10;99.90;;;;;;5045286;28;20206;-78
2023/06/25 06:29:39;;;;;;;4.30;3.80;;;38.40;99.90;;;;;;5041744;28;20186;-80
2023/06/25 06:32:05;;;;;;;4.50;4.10;;;40.30;98.40;;;;;;5050163;28;20192;-76
2023/06/25 06:34:30;;;;;;;4.37;3.60;;;42.20;92.00;;;;;;5046976;28;20196;-77
2023/06/25 06:36:56;;;;;;;4.40;3.67;;;43.50;78.00;;;;;;5042906;28;20476;-77
2023/06/25 06:39:22;;;;;;;7.20;3.90;;;44.90;65.10;;;;;;5054200;28;20186;-77
2023/06/25 06:41:48;;;;;;;5.23;4.10;;;46.30;56.10;;;;;;5042692;28;20674;-78
2023/06/25 06:44:15;;;;;;;5.20;4.20;;;47.60;37.80;;;;;;5047234;28;20423;-78
2023/06/25 06:46:42;;;;;;;4.83;3.50;;;48.60;26.30;;;;;;5042489;28;20686;-78
2023/06/25 06:49:08;;;;;;;6.50;3.70;;;49.10;19.80;;;;;;5050778;28;20929;-77
2023/06/25 06:51:34;;;;;;;5.17;4.27;;;49.60;14.00;;;;;;5031220;28;20466;-77
2023/06/25 06:54:00;;;;;;;4.20;3.90;;;50.40;10.70;;;;;;5049852;28;20439;-77
2023/06/25 06:56:26;;;;;;;4.70;4.03;;;51.30;6.00;;;;;;5047966;28;20723;-77
2023/06/25 06:58:51;;;;;;;3.57;3.27;;;51.90;2.20;;;;;;5049548;28;20208;-77
2023/06/25 07:01:17;;;;;;;9.57;4.15;;;52.50;1.00;;;;;;5049196;28;20284;-78
2023/06/25 07:03:42;;;;;;;4.05;3.75;;;53.60;1.00;;;;;;5043696;28;20561;-78
2023/06/25 07:06:08;;;;;;;7.25;3.45;;;54.60;1.00;;;;;;5048135;28;20185;-76
2023/06/25 07:08:34;;;;;;;7.70;3.90;;;55.50;1.00;;;;;;5046785;28;20205;-77
2023/06/25 07:10:59;;;;;;;6.43;3.88;;;56.20;1.00;;;;;;5031586;28;20180;-78
2023/06/25 07:13:25;;;;;;;3.95;3.55;;;56.70;1.00;;;;;;5048885;28;20192;-78
2023/06/25 07:15:50;;;;;;;5.30;3.38;;;57.10;1.00;;;;;;5048496;28;20181;-78
2023/06/25 07:18:16;;;;;;;3.47;3.17;;;57.30;1.00;;;;;;5051688;28;20221;-78
2023/06/25 07:20:41;;;;;;;3.78;3.42;;;57.80;1.00;;;;;;5047359;28;20200;-78
2023/06/25 07:23:07;;;;;;;4.15;3.35;;;58.20;1.00;;;;;;5049758;28;20199;-79
2023/06/25 07:25:32;;;;;;;3.60;3.28;;;59.00;1.00;;;;;;5048750;28;20197;-78
2023/06/25 07:27:58;;;;;;;4.05;3.30;;;59.10;1.00;;;;;;5050125;28;20651;-79
2023/06/25 07:30:24;;;;;;;5.05;3.75;;;59.20;1.00;;;;;;5050917;28;20197;-79
2023/06/25 07:32:49;;;;;;;9.15;3.88;;;59.40;1.00;;;;;;5050502;28;20211;-79
2023/06/25 07:35:15;;;;;;;4.75;3.95;;;59.90;1.00;;;;;;5050014;28;20177;-77
2023/06/25 07:37:40;;;;;;;4.03;3.65;;;60.70;1.00;;;;;;5050316;28;20700;-79
2023/06/25 07:40:07;;;;;;;5.97;3.35;;;60.90;1.00;;;;;;5046444;28;20192;-79
2023/06/25 07:42:33;;;;;;;4.30;3.90;;;60.80;1.00;;;;;;5035891;28;20184;-79
2023/06/25 07:44:58;;;;;;;3.75;3.40;;;60.60;1.00;;;;;;5052641;28;20195;-78
2023/06/25 07:47:26;;;;;;;4.13;3.67;;;60.20;1.00;;;;;;5055399;28;20307;-79
2023/06/25 07:49:52;;;;;;;3.60;3.30;;;59.90;1.00;;;;;;5051208;28;20637;-79
2023/06/25 07:52:17;;;;;;;3.97;3.67;;;59.90;1.00;;;;;;5055825;28;20185;-78
2023/06/25 07:54:43;;;;;;;3.65;3.40;;;59.30;1.00;;;;;;5051700;28;20208;-78
2023/06/25 07:57:09;;;;;;;4.78;4.43;;;59.10;1.00;;;;;;5047828;28;20216;-78
2023/06/25 07:59:34;;;;;;;4.38;4.03;;;58.30;1.00;;;;;;5051146;28;20214;-79
2023/06/25 08:02:00;;;;;;;5.03;3.20;;;57.60;1.00;;;;;;5052774;28;20310;-79
2023/06/25 08:04:25;;;;;;;4.68;3.50;;;57.30;1.00;;;;;;5053625;28;20219;-78
2023/06/25 08:06:51;;;;;;;4.05;3.65;;;57.40;1.00;;;;;;5049692;28;20208;-80
2023/06/25 08:09:16;;;;;;;4.10;3.70;;;57.40;1.00;;;;;;5050285;28;20185;-78
2023/06/25 08:11:42;;;;;;;4.18;3.80;;;57.10;1.00;;;;;;5051747;28;20196;-79
2023/06/25 08:14:10;;;;;;;6.22;3.55;;;57.00;1.00;;;;;;5049528;28;20176;-77
2023/06/25 08:16:37;;;;;;;3.55;3.30;;;57.00;1.00;;;;;;5044366;28;20199;-78
2023/06/25 08:19:03;;;;;;;3.95;3.60;;;57.60;1.00;;;;;;5050834;28;20177;-79
2023/06/25 08:21:28;;;;;;;4.10;3.78;;;58.30;1.00;;;;;;5051399;28;20187;-75
2023/06/25 08:23:54;;;;;;;4.30;3.90;;;58.80;1.00;;;;;;5051768;28;20189;-78
2023/06/25 08:26:19;;;;;;;3.40;3.10;;;59.00;1.00;;;;;;5033731;28;20196;-78
2023/06/25 08:28:45;;;;;;;3.95;3.65;;;58.80;1.00;;;;;;5050506;28;20201;-79
2023/06/25 08:31:10;;;;;;;8.27;3.60;;;58.00;1.00;;;;;;5051235;28;20173;-78
2023/06/25 08:33:37;;;;;;;4.25;3.60;;;57.40;1.00;;;;;;5046410;28;20181;-76
2023/06/25 08:36:03;;;;;;;3.42;3.13;;;57.20;1.00;;;;;;5031734;28;20250;-77
2023/06/25 08:38:30;;;;;;;4.10;3.70;;;56.80;1.00;;;;;;5050039;28;20208;-77
2023/06/25 08:40:56;;;;;;;5.35;3.75;;;56.70;1.00;;;;;;5049830;28;20185;-77
2023/06/25 08:43:21;;;;;;;3.47;3.17;;;57.10;1.00;;;;;;5049638;28;20184;-78
2023/06/25 08:45:47;;;;;;;4.45;3.60;;;57.30;1.00;;;;;;5045973;28;20180;-77
2023/06/25 08:48:13;;;;;;;3.67;3.38;;;57.20;1.00;;;;;;5049476;28;20228;-77
2023/06/25 08:50:42;;;;;;;3.38;3.10;;;57.30;1.00;;;;;;5046466;28;20196;-78
2023/06/25 08:53:07;;;;;;;3.92;3.53;;;57.40;1.00;;;;;;5048401;28;20173;-78
2023/06/25 08:55:34;;;;;;;3.70;3.22;;;57.70;1.00;;;;;;5049271;28;20187;-78
2023/06/25 08:58:00;;;;;;;4.55;3.75;;;57.60;1.00;;;;;;5049198;28;21187;-78
2023/06/25 09:00:26;;;;;;;4.53;4.00;;;57.70;1.00;;;;;;5049901;28;20276;-78
2023/06/25 09:02:52;;;;;;;3.63;3.33;;;57.90;1.00;;;;;;5048886;28;20655;-78
2023/06/25 09:05:24;;;;;;;4.03;3.38;;;57.20;1.00;;;;;;5044494;28;20196;-77
2023/06/25 09:07:50;;;;;;;3.92;3.58;;;57.20;1.00;;;;;;5046499;28;20213;-77
2023/06/25 09:10:16;;;;;;;6.88;3.50;;;57.40;1.00;;;;;;5050181;28;20609;-78
2023/06/25 09:12:45;;;;;;;4.05;3.30;;;57.80;1.00;;;;;;5031232;28;20674;-76
2023/06/25 09:15:11;;;;;;;4.03;3.60;;;58.10;1.00;;;;;;5048964;28;20184;-78
2023/06/25 09:17:37;;;;;;;3.85;3.53;;;57.70;1.00;;;;;;5050448;28;20208;-78
2023/06/25 09:20:07;;;;;;;3.38;3.08;;;57.40;1.00;;;;;;5049500;28;20233;-78
2023/06/25 09:22:33;;;;;;;3.70;3.40;;;57.20;1.00;;;;;;5045092;28;20184;-78
2023/06/25 09:24:59;;;;;;;3.55;3.25;;;56.80;1.00;;;;;;5049087;28;20531;-75
2023/06/25 09:27:25;;;;;;;5.72;3.80;;;56.80;1.00;;;;;;5047428;28;20228;-78
2023/06/25 09:29:52;;;;;;;3.50;3.20;;;56.80;1.00;;;;;;5042719;28;20181;-78
2023/06/25 09:32:17;;;;;;;3.95;3.50;;;56.90;1.00;;;;;;5049182;28;20219;-78
2023/06/25 09:34:46;;;;;;;4.30;3.85;;;56.70;1.00;;;;;;5049299;28;20221;-78
2023/06/25 09:37:12;;;;;;;4.30;3.60;;;56.30;1.00;;;;;;5049509;28;20235;-78
2023/06/25 09:39:37;;;;;;;4.05;3.75;;;56.20;1.00;;;;;;5047243;28;20212;-78
2023/06/25 09:42:05;;;;;;;4.15;3.80;;;56.20;1.00;;;;;;5048278;28;20184;-77
2023/06/25 09:44:37;;;;;;;4.53;4.13;;;56.30;1.00;;;;;;5049097;28;20683;-78
2023/06/25 09:47:07;;;;;;;4.25;3.85;;;55.90;1.00;;;;;;5045744;28;20208;-78
2023/06/25 09:49:33;;;;;;;4.07;3.78;;;55.60;1.00;;;;;;5048496;28;20192;-78
2023/06/25 09:52:14;;;;;;;4.20;3.90;;;55.50;1.00;;;;;;5048408;28;20177;-78
2023/06/25 09:54:41;;;;;;;4.30;4.00;;;55.70;1.00;;;;;;5049515;28;20188;-77
2023/06/25 09:57:09;;;;;;;5.10;3.75;;;55.60;1.00;;;;;;5047819;28;20209;-77
2023/06/25 09:59:36;;;;;;;3.45;3.00;;;55.90;1.00;;;;;;5047773;28;20200;-78
2023/06/25 10:02:05;;;;;;;4.80;3.58;;;55.70;1.00;;;;;;5048851;28;20173;-78
2023/06/25 10:04:32;;;;;;;5.20;4.07;;;55.60;1.00;;;;;;5043645;28;20184;-77
2023/06/25 10:06:58;;;;;;;3.92;3.63;;;55.00;1.00;;;;;;5047648;28;20295;-78
2023/06/25 10:09:24;;;;;;;3.80;3.50;;;54.40;1.00;;;;;;5041663;28;20319;-78
2023/06/25 10:11:50;;;;;;;3.90;3.70;;;54.30;1.00;;;;;;5047581;28;20897;-77
2023/06/25 10:14:16;;;;;;;4.32;3.60;;;54.40;1.00;;;;;;5048334;28;20177;-78
2023/06/25 10:16:49;;;;;;;4.23;3.80;;;54.40;1.00;;;;;;5048264;28;20694;-76
2023/06/25 10:19:25;;;;;;;4.80;3.80;;;54.10;1.00;;;;;;5048278;28;20184;-78
2023/06/25 10:22:04;;;;;;;4.10;3.80;;;53.90;1.00;;;;;;5043475;28;20658;-77
2023/06/25 10:24:41;;;;;;;4.20;3.90;;;53.80;1.00;;;;;;5028834;28;20189;-76
2023/06/25 10:27:07;;;;;;;4.60;4.10;;;53.20;1.00;;;;;;5047426;28;20208;-77
2023/06/25 10:29:42;;;;;;;4.77;4.10;;;52.90;1.00;;;;;;5047954;28;20272;-77
2023/06/25 10:32:10;;;;;;;4.00;3.60;;;52.90;1.00;;;;;;5046604;28;20616;-78
2023/06/25 10:34:37;;;;;;;3.53;3.23;;;52.70;1.00;;;;;;5046421;28;20196;-78
2023/06/25 10:37:04;;;;;;;4.20;3.57;;;53.00;1.00;;;;;;5046772;28;20211;-78
2023/06/25 10:39:41;;;;;;;4.60;4.27;;;53.20;1.00;;;;;;5044116;28;20222;-76
2023/06/25 10:42:07;;;;;;;4.40;4.00;;;52.50;1.00;;;;;;5046869;28;20728;-77
2023/06/25 10:44:33;;;;;;;3.93;3.63;;;51.90;1.00;;;;;;5046167;28;20185;-78
2023/06/25 10:47:07;;;;;;;4.83;4.43;;;51.00;1.00;;;;;;5050578;28;20473;-78
2023/06/25 10:49:34;;;;;;;4.63;4.23;;;50.50;1.00;;;;;;5050164;28;20435;-77
2023/06/25 10:52:01;;;;;;;4.07;3.70;;;50.80;1.00;;;;;;5048216;28;21422;-78
2023/06/25 10:54:26;;;;;;;3.60;3.40;;;51.30;1.00;;;;;;5049917;28;20450;-78
2023/06/25 10:57:05;;;;;;;4.03;3.63;;;51.20;1.00;;;;;;5046502;28;20435;-76
2023/06/25 10:59:30;;;;;;;3.93;3.53;;;51.00;1.00;;;;;;5047266;28;20192;-78
2023/06/25 11:01:56;;;;;;;4.63;3.77;;;50.40;1.00;;;;;;5048806;28;20959;-78
2023/06/25 11:04:21;;;;;;;3.83;3.47;;;50.60;1.00;;;;;;5050493;28;20192;-78
2023/06/25 11:06:47;;;;;;;3.93;3.63;;;50.30;1.00;;;;;;5049063;28;20743;-79
2023/06/25 11:09:13;;;;;;;3.50;3.30;;;50.10;1.00;;;;;;5050123;28;20181;-77
2023/06/25 11:11:38;;;;;;;3.93;3.53;;;49.50;1.00;;;;;;5049948;28;20184;-79
2023/06/25 11:14:04;;;;;;;4.70;3.17;;;49.20;1.00;;;;;;5048663;28;20553;-77
2023/06/25 11:16:29;;;;;;;4.23;3.80;;;49.50;1.00;;;;;;5044561;28;24574;-78
2023/06/25 11:18:55;;;;;;;4.13;3.83;;;49.60;1.00;;;;;;5050299;28;20206;-77
2023/06/25 11:21:20;;;;;;;4.00;3.60;;;49.70;1.00;;;;;;5051369;28;20181;-77
2023/06/25 11:23:46;;;;;;;3.40;3.20;;;50.00;1.00;;;;;;5051190;28;20192;-78
2023/06/25 11:26:15;;;;;;;4.00;3.60;;;50.30;1.00;;;;;;5043020;28;20244;-78
2023/06/25 11:28:40;;;;;;;4.57;3.97;;;50.10;1.00;;;;;;5046921;28;20235;-76
2023/06/25 11:31:06;;;;;;;4.10;3.80;;;49.40;1.00;;;;;;5048888;28;20439;-75
2023/06/25 11:33:32;;;;;;;3.40;3.20;;;49.40;1.00;;;;;;5049888;28;20717;-78
2023/06/25 11:36:11;;;;;;;4.03;3.63;;;49.60;1.00;;;;;;5048611;28;20181;-78
2023/06/25 11:38:36;;;;;;;4.47;4.07;;;49.20;1.00;;;;;;5051354;28;20577;-77
2023/06/25 11:41:02;;;;;;;5.53;4.97;;;48.80;1.00;;;;;;5050727;28;20431;-77
2023/06/25 11:43:28;;;;;;;3.70;3.40;;;48.50;1.00;;;;;;5050333;28;20228;-77
2023/06/25 11:45:59;;;;;;;7.57;6.87;;;48.60;1.00;;;;;;5051039;28;20564;-77
2023/06/25 11:48:25;;;;;;;5.77;4.93;;;48.30;1.00;;;;;;5051015;28;20478;-76
2023/06/25 11:50:52;;;;;;;4.47;4.07;;;47.50;1.00;;;;;;5051780;28;20440;-77
2023/06/25 11:53:17;;;;;;;7.60;4.13;;;47.30;1.00;;;;;;5047424;28;20250;-78
2023/06/25 11:55:43;;;;;;;8.03;3.40;;;47.60;1.00;;;;;;5050669;28;20443;-78
2023/06/25 11:58:09;;;;;;;3.70;3.40;;;47.80;1.00;;;;;;5049736;28;20200;-78
2023/06/25 12:00:35;;;;;;;4.27;3.97;;;47.50;1.00;;;;;;5051626;28;20181;-78
2023/06/25 12:03:01;;;;;;;4.00;3.70;;;47.30;1.00;;;;;;5052143;28;20435;-78
2023/06/25 12:05:26;;;;;;;4.33;3.77;;;47.10;1.00;;;;;;5051611;28;20189;-77
2023/06/25 12:07:52;;;;;;;3.60;3.30;;;46.50;1.00;;;;;;5049563;28;20213;-77
2023/06/25 12:10:17;;;;;;;4.63;3.87;;;45.80;1.00;;;;;;5047471;28;20192;-78
2023/06/25 12:12:46;;;;;;;5.03;4.30;;;45.60;1.00;;;;;;5051172;28;20682;-78
2023/06/25 12:15:11;;;;;;;7.30;4.23;;;45.20;1.00;;;;;;5040412;28;20264;-77
2023/06/25 12:17:37;;;;;;;3.67;3.40;;;45.00;1.00;;;;;;5049848;28;20562;-77
2023/06/25 12:20:04;;;;;;;4.50;4.10;;;44.70;1.00;;;;;;5052252;28;20666;-77
2023/06/25 12:22:29;;;;;;;3.90;3.60;;;44.20;1.00;;;;;;5051869;28;20173;-77
2023/06/25 12:24:55;;;;;;;4.33;3.93;;;44.00;1.00;;;;;;5049327;28;20450;-77
2023/06/25 12:27:20;;;;;;;3.77;3.37;;;43.60;1.00;;;;;;5048998;28;20283;-78
2023/06/25 12:29:46;;;;;;;3.33;3.03;;;43.40;1.00;;;;;;5049110;28;20188;-77
2023/06/25 12:32:11;;;;;;;2.80;2.60;;;43.30;1.00;;;;;;5050265;28;20201;-77
2023/06/25 12:34:37;;;;;;;3.80;3.40;;;43.50;1.00;;;;;;5050904;28;20182;-76
2023/06/25 12:37:03;;;;;;;4.00;3.70;;;43.80;1.00;;;;;;5051259;28;20209;-77
2023/06/25 12:39:28;;;;;;;4.43;4.03;;;43.90;1.00;;;;;;5046379;28;20204;-77
2023/06/25 12:41:54;;;;;;;4.10;3.70;;;43.80;1.00;;;;;;5049774;28;20202;-77
2023/06/25 12:44:19;;;;;;;5.70;4.13;;;43.40;1.00;;;;;;5050338;28;20196;-74
2023/06/25 12:46:45;;;;;;;4.00;3.60;;;43.10;1.00;;;;;;5052042;28;20296;-77